sensor_id;sensor_type;location;lat;lon;timestamp;pressure;altitude;pressure_sealevel;temperature;humidity
68474;BME280;55461;52.066;5.194;2022-12-29T00:01:35;99884.0;;;11.2;98.39
68474;BME280;55461;52.066;5.194;2022-12-29T00:04:49;99867.0;;;11.22;97.9
68474;BME280;55461;52.066;5.194;2022-12-29T00:06:26;99869.0;;;11.29;97.12
68474;BME280;55461;52.066;5.194;2022-12-29T00:08:03;99860.0;;;11.29;96.97
68474;BME280;55461;52.066;5.194;2022-12-29T00:11:18;99858.0;;;11.28;96.75
68474;BME280;55461;52.066;5.194;2022-12-29T00:12:55;99853.0;;;11.35;96.36
68474;BME280;55461;52.066;5.194;2022-12-29T00:14:32;99845.0;;;11.37;95.98
68474;BME280;55461;52.066;5.194;2022-12-29T00:16:08;99855.0;;;11.39;96.0
68474;BME280;55461;52.066;5.194;2022-12-29T00:19:20;99838.0;;;11.41;95.92
68474;BME280;55461;52.066;5.194;2022-12-29T00:20:56;99841.0;;;11.42;95.74
68474;BME280;55461;52.066;5.194;2022-12-29T00:22:33;99842.0;;;11.49;95.64
68474;BME280;55461;52.066;5.194;2022-12-29T00:27:27;99847.0;;;11.55;95.36
68474;BME280;55461;52.066;5.194;2022-12-29T00:29:03;99839.0;;;11.52;95.24
68474;BME280;55461;52.066;5.194;2022-12-29T00:30:40;99839.0;;;11.46;95.49
68474;BME280;55461;52.066;5.194;2022-12-29T00:33:53;99840.0;;;11.49;95.36
68474;BME280;55461;52.066;5.194;2022-12-29T00:35:31;99828.0;;;11.49;95.46
68474;BME280;55461;52.066;5.194;2022-12-29T00:37:12;99831.0;;;11.61;94.95
68474;BME280;55461;52.066;5.194;2022-12-29T00:40:31;99828.0;;;11.6;95.01
68474;BME280;55461;52.066;5.194;2022-12-29T00:42:08;99815.0;;;11.58;94.74
68474;BME280;55461;52.066;5.194;2022-12-29T00:43:45;99827.0;;;11.52;94.79
68474;BME280;55461;52.066;5.194;2022-12-29T00:45:21;99813.0;;;11.55;94.59
68474;BME280;55461;52.066;5.194;2022-12-29T00:48:33;99808.0;;;11.54;94.41
68474;BME280;55461;52.066;5.194;2022-12-29T00:50:10;99806.0;;;11.53;94.35
68474;BME280;55461;52.066;5.194;2022-12-29T00:51:47;99805.0;;;11.63;93.85
68474;BME280;55461;52.066;5.194;2022-12-29T00:54:59;99801.0;;;11.54;93.8
68474;BME280;55461;52.066;5.194;2022-12-29T00:56:35;99801.0;;;11.57;94.5
68474;BME280;55461;52.066;5.194;2022-12-29T00:58:13;99795.0;;;11.54;94.52
68474;BME280;55461;52.066;5.194;2022-12-29T01:01:26;99789.0;;;11.48;94.69
68474;BME280;55461;52.066;5.194;2022-12-29T01:03:02;99788.0;;;11.46;95.17
68474;BME280;55461;52.066;5.194;2022-12-29T01:04:38;99787.0;;;11.47;95.54
68474;BME280;55461;52.066;5.194;2022-12-29T01:06:14;99780.0;;;11.41;95.36
68474;BME280;55461;52.066;5.194;2022-12-29T01:09:27;99782.0;;;11.48;95.71
68474;BME280;55461;52.066;5.194;2022-12-29T01:11:05;99780.0;;;11.36;96.81
68474;BME280;55461;52.066;5.194;2022-12-29T01:12:42;99784.0;;;11.33;97.26
68474;BME280;55461;52.066;5.194;2022-12-29T01:15:56;99780.0;;;11.39;97.52
68474;BME280;55461;52.066;5.194;2022-12-29T01:17:33;99787.0;;;11.3;99.1
68474;BME280;55461;52.066;5.194;2022-12-29T01:19:10;99785.0;;;11.25;99.89
68474;BME280;55461;52.066;5.194;2022-12-29T01:22:24;99772.0;;;11.24;100.0
68474;BME280;55461;52.066;5.194;2022-12-29T01:24:00;99765.0;;;11.19;100.0
68474;BME280;55461;52.066;5.194;2022-12-29T01:25:37;99767.0;;;11.13;100.0
68474;BME280;55461;52.066;5.194;2022-12-29T01:27:14;99776.0;;;11.15;100.0
68474;BME280;55461;52.066;5.194;2022-12-29T01:30:27;99791.0;;;10.94;100.0
68474;BME280;55461;52.066;5.194;2022-12-29T01:32:03;99784.0;;;10.98;100.0
68474;BME280;55461;52.066;5.194;2022-12-29T01:33:40;99786.0;;;10.97;100.0
68474;BME280;55461;52.066;5.194;2022-12-29T01:36:55;99789.0;;;10.88;100.0
68474;BME280;55461;52.066;5.194;2022-12-29T01:38:31;99790.0;;;10.79;100.0
68474;BME280;55461;52.066;5.194;2022-12-29T01:40:10;99790.0;;;10.82;100.0
68474;BME280;55461;52.066;5.194;2022-12-29T01:41:47;99790.0;;;10.8;100.0
68474;BME280;55461;52.066;5.194;2022-12-29T01:45:17;99796.0;;;10.86;100.0
68474;BME280;55461;52.066;5.194;2022-12-29T01:46:53;99792.0;;;10.84;100.0
68474;BME280;55461;52.066;5.194;2022-12-29T01:48:31;99792.0;;;10.79;100.0
68474;BME280;55461;52.066;5.194;2022-12-29T01:50:10;99784.0;;;10.84;100.0
68474;BME280;55461;52.066;5.194;2022-12-29T01:53:35;99782.0;;;10.78;100.0
68474;BME280;55461;52.066;5.194;2022-12-29T01:55:13;99783.0;;;10.76;100.0
68474;BME280;55461;52.066;5.194;2022-12-29T01:56:50;99768.0;;;10.78;100.0
68474;BME280;55461;52.066;5.194;2022-12-29T01:58:30;99771.0;;;10.7;100.0
68474;BME280;55461;52.066;5.194;2022-12-29T02:01:50;99784.0;;;10.79;100.0
68474;BME280;55461;52.066;5.194;2022-12-29T02:03:27;99778.0;;;10.7;100.0
68474;BME280;55461;52.066;5.194;2022-12-29T02:05:09;99789.0;;;10.79;100.0
68474;BME280;55461;52.066;5.194;2022-12-29T02:06:53;99784.0;;;10.86;100.0
68474;BME280;55461;52.066;5.194;2022-12-29T02:10:08;99797.0;;;10.83;100.0
68474;BME280;55461;52.066;5.194;2022-12-29T02:11:45;99799.0;;;10.76;100.0
68474;BME280;55461;52.066;5.194;2022-12-29T02:15:02;99800.0;;;10.78;100.0
68474;BME280;55461;52.066;5.194;2022-12-29T02:16:53;99801.0;;;10.93;100.0
68474;BME280;55461;52.066;5.194;2022-12-29T02:18:44;99800.0;;;11.0;100.0
68474;BME280;55461;52.066;5.194;2022-12-29T02:24:18;99797.0;;;10.93;100.0
68474;BME280;55461;52.066;5.194;2022-12-29T02:27:24;99794.0;;;10.91;100.0
68474;BME280;55461;52.066;5.194;2022-12-29T02:30:58;99795.0;;;10.82;100.0
68474;BME280;55461;52.066;5.194;2022-12-29T02:32:46;99792.0;;;10.87;100.0
68474;BME280;55461;52.066;5.194;2022-12-29T02:34:39;99801.0;;;10.84;100.0
68474;BME280;55461;52.066;5.194;2022-12-29T02:36:25;99785.0;;;10.78;99.13
68474;BME280;55461;52.066;5.194;2022-12-29T02:40:01;99774.0;;;10.84;98.52
68474;BME280;55461;52.066;5.194;2022-12-29T02:41:48;99788.0;;;10.93;98.37
68474;BME280;55461;52.066;5.194;2022-12-29T02:43:44;99778.0;;;10.94;97.13
68474;BME280;55461;52.066;5.194;2022-12-29T02:45:32;99783.0;;;10.84;97.46
68474;BME280;55461;52.066;5.194;2022-12-29T02:47:20;99778.0;;;10.95;97.09
68474;BME280;55461;52.066;5.194;2022-12-29T02:49:06;99780.0;;;10.95;96.47
68474;BME280;55461;52.066;5.194;2022-12-29T02:50:51;99785.0;;;11.0;95.84
68474;BME280;55461;52.066;5.194;2022-12-29T02:54:16;99790.0;;;11.08;95.91
68474;BME280;55461;52.066;5.194;2022-12-29T02:55:53;99789.0;;;10.98;96.18
68474;BME280;55461;52.066;5.194;2022-12-29T02:57:32;99799.0;;;10.91;96.51
68474;BME280;55461;52.066;5.194;2022-12-29T02:59:09;99794.0;;;10.96;96.61
68474;BME280;55461;52.066;5.194;2022-12-29T03:03:00;99801.0;;;10.95;95.98
68474;BME280;55461;52.066;5.194;2022-12-29T03:05:03;99796.0;;;10.96;96.67
68474;BME280;55461;52.066;5.194;2022-12-29T03:06:58;99802.0;;;11.02;96.63
68474;BME280;55461;52.066;5.194;2022-12-29T03:08:44;99798.0;;;10.91;96.61
68474;BME280;55461;52.066;5.194;2022-12-29T03:10:34;99794.0;;;11.02;96.32
68474;BME280;55461;52.066;5.194;2022-12-29T03:12:23;99786.0;;;10.97;96.25
68474;BME280;55461;52.066;5.194;2022-12-29T03:14:09;99793.0;;;10.89;96.44
68474;BME280;55461;52.066;5.194;2022-12-29T03:15:59;99795.0;;;10.83;96.64
68474;BME280;55461;52.066;5.194;2022-12-29T03:19:28;99788.0;;;10.82;96.59
68474;BME280;55461;52.066;5.194;2022-12-29T03:21:11;99785.0;;;10.82;96.62
68474;BME280;55461;52.066;5.194;2022-12-29T03:22:51;99784.0;;;10.79;96.35
68474;BME280;55461;52.066;5.194;2022-12-29T03:24:49;99785.0;;;10.75;96.57
68474;BME280;55461;52.066;5.194;2022-12-29T03:26:27;99782.0;;;10.8;96.77
68474;BME280;55461;52.066;5.194;2022-12-29T03:29:48;99776.0;;;10.72;97.49
68474;BME280;55461;52.066;5.194;2022-12-29T03:31:26;99772.0;;;10.69;97.34
68474;BME280;55461;52.066;5.194;2022-12-29T03:33:07;99765.0;;;10.62;97.84
68474;BME280;55461;52.066;5.194;2022-12-29T03:34:46;99769.0;;;10.65;97.57
68474;BME280;55461;52.066;5.194;2022-12-29T03:38:14;99770.0;;;10.62;97.23
68474;BME280;55461;52.066;5.194;2022-12-29T03:39:55;99768.0;;;10.7;96.79
68474;BME280;55461;52.066;5.194;2022-12-29T03:41:32;99771.0;;;10.6;96.69
68474;BME280;55461;52.066;5.194;2022-12-29T03:43:11;99769.0;;;10.55;96.83
68474;BME280;55461;52.066;5.194;2022-12-29T03:46:30;99759.0;;;10.53;96.57
68474;BME280;55461;52.066;5.194;2022-12-29T03:48:07;99762.0;;;10.43;97.15
68474;BME280;55461;52.066;5.194;2022-12-29T03:49:43;99762.0;;;10.47;97.08
68474;BME280;55461;52.066;5.194;2022-12-29T03:52:59;99768.0;;;10.48;97.04
68474;BME280;55461;52.066;5.194;2022-12-29T03:54:35;99762.0;;;10.42;97.2
68474;BME280;55461;52.066;5.194;2022-12-29T03:56:12;99750.0;;;10.3;97.87
68474;BME280;55461;52.066;5.194;2022-12-29T04:01:00;99757.0;;;10.22;98.5
68474;BME280;55461;52.066;5.194;2022-12-29T04:02:36;99758.0;;;10.28;98.36
68474;BME280;55461;52.066;5.194;2022-12-29T04:04:13;99759.0;;;10.21;98.65
68474;BME280;55461;52.066;5.194;2022-12-29T04:07:25;99747.0;;;10.17;98.97
68474;BME280;55461;52.066;5.194;2022-12-29T04:09:02;99756.0;;;10.22;99.27
68474;BME280;55461;52.066;5.194;2022-12-29T04:10:39;99759.0;;;10.29;98.86
68474;BME280;55461;52.066;5.194;2022-12-29T04:13:53;99768.0;;;10.26;98.79
68474;BME280;55461;52.066;5.194;2022-12-29T04:15:29;99772.0;;;10.16;98.95
68474;BME280;55461;52.066;5.194;2022-12-29T04:17:05;99767.0;;;10.21;98.05
68474;BME280;55461;52.066;5.194;2022-12-29T04:18:42;99768.0;;;10.22;97.25
68474;BME280;55461;52.066;5.194;2022-12-29T04:21:55;99782.0;;;10.32;96.51
68474;BME280;55461;52.066;5.194;2022-12-29T04:25:11;99782.0;;;10.23;94.93
68474;BME280;55461;52.066;5.194;2022-12-29T04:28:23;99792.0;;;10.3;94.26
68474;BME280;55461;52.066;5.194;2022-12-29T04:30:00;99780.0;;;10.29;94.11
68474;BME280;55461;52.066;5.194;2022-12-29T04:31:37;99786.0;;;10.33;92.14
68474;BME280;55461;52.066;5.194;2022-12-29T04:34:50;99785.0;;;10.29;92.59
68474;BME280;55461;52.066;5.194;2022-12-29T04:36:26;99795.0;;;10.32;91.68
68474;BME280;55461;52.066;5.194;2022-12-29T04:38:03;99796.0;;;10.26;91.34
68474;BME280;55461;52.066;5.194;2022-12-29T04:39:39;99797.0;;;10.43;91.1
68474;BME280;55461;52.066;5.194;2022-12-29T04:42:52;99802.0;;;10.48;90.6
68474;BME280;55461;52.066;5.194;2022-12-29T04:44:28;99801.0;;;10.45;90.39
68474;BME280;55461;52.066;5.194;2022-12-29T04:46:05;99800.0;;;10.48;89.74
68474;BME280;55461;52.066;5.194;2022-12-29T04:49:18;99803.0;;;10.51;89.92
68474;BME280;55461;52.066;5.194;2022-12-29T04:50:54;99798.0;;;10.6;89.74
68474;BME280;55461;52.066;5.194;2022-12-29T04:52:30;99798.0;;;10.52;89.9
68474;BME280;55461;52.066;5.194;2022-12-29T04:55:48;99807.0;;;10.59;89.6
68474;BME280;55461;52.066;5.194;2022-12-29T04:57:25;99819.0;;;10.59;89.8
68474;BME280;55461;52.066;5.194;2022-12-29T04:59:02;99822.0;;;10.51;90.14
68474;BME280;55461;52.066;5.194;2022-12-29T05:00:38;99811.0;;;10.55;90.2
68474;BME280;55461;52.066;5.194;2022-12-29T05:03:51;99827.0;;;10.45;89.8
68474;BME280;55461;52.066;5.194;2022-12-29T05:05:28;99817.0;;;10.47;89.61
68474;BME280;55461;52.066;5.194;2022-12-29T05:07:05;99815.0;;;10.46;90.06
68474;BME280;55461;52.066;5.194;2022-12-29T05:10:18;99819.0;;;10.37;89.46
68474;BME280;55461;52.066;5.194;2022-12-29T05:11:54;99819.0;;;10.32;89.89
68474;BME280;55461;52.066;5.194;2022-12-29T05:13:30;99825.0;;;10.35;89.17
68474;BME280;55461;52.066;5.194;2022-12-29T05:15:09;99827.0;;;10.29;89.27
68474;BME280;55461;52.066;5.194;2022-12-29T05:18:22;99825.0;;;10.23;89.37
68474;BME280;55461;52.066;5.194;2022-12-29T05:19:58;99825.0;;;10.27;89.66
68474;BME280;55461;52.066;5.194;2022-12-29T05:21:35;99831.0;;;10.35;89.26
68474;BME280;55461;52.066;5.194;2022-12-29T05:24:50;99833.0;;;10.33;89.13
68474;BME280;55461;52.066;5.194;2022-12-29T05:26:26;99832.0;;;10.23;89.16
68474;BME280;55461;52.066;5.194;2022-12-29T05:28:02;99825.0;;;10.23;88.65
68474;BME280;55461;52.066;5.194;2022-12-29T05:31:15;99827.0;;;10.39;88.74
68474;BME280;55461;52.066;5.194;2022-12-29T05:32:51;99822.0;;;10.23;88.62
68474;BME280;55461;52.066;5.194;2022-12-29T05:34:29;99812.0;;;10.36;88.14
68474;BME280;55461;52.066;5.194;2022-12-29T05:36:07;99818.0;;;10.22;88.39
68474;BME280;55461;52.066;5.194;2022-12-29T05:39:21;99820.0;;;10.29;88.67
68474;BME280;55461;52.066;5.194;2022-12-29T05:40:57;99822.0;;;10.25;88.63
68474;BME280;55461;52.066;5.194;2022-12-29T05:42:33;99820.0;;;10.29;88.56
68474;BME280;55461;52.066;5.194;2022-12-29T05:45:48;99800.0;;;10.27;88.27
68474;BME280;55461;52.066;5.194;2022-12-29T05:49:01;99824.0;;;10.22;88.38
68474;BME280;55461;52.066;5.194;2022-12-29T05:52:13;99827.0;;;10.33;88.41
68474;BME280;55461;52.066;5.194;2022-12-29T05:53:50;99835.0;;;10.34;88.33
68474;BME280;55461;52.066;5.194;2022-12-29T05:55:27;99843.0;;;10.29;87.72
68474;BME280;55461;52.066;5.194;2022-12-29T05:57:03;99834.0;;;10.28;86.38
68474;BME280;55461;52.066;5.194;2022-12-29T06:00:16;99852.0;;;10.29;87.0
68474;BME280;55461;52.066;5.194;2022-12-29T06:01:52;99848.0;;;10.35;86.93
68474;BME280;55461;52.066;5.194;2022-12-29T06:03:28;99857.0;;;10.32;88.19
68474;BME280;55461;52.066;5.194;2022-12-29T06:06:42;99864.0;;;10.18;89.32
68474;BME280;55461;52.066;5.194;2022-12-29T06:08:19;99856.0;;;10.21;89.13
68474;BME280;55461;52.066;5.194;2022-12-29T06:09:55;99859.0;;;10.25;88.7
68474;BME280;55461;52.066;5.194;2022-12-29T06:13:09;99862.0;;;10.14;88.62
68474;BME280;55461;52.066;5.194;2022-12-29T06:14:45;99858.0;;;10.1;88.64
68474;BME280;55461;52.066;5.194;2022-12-29T06:16:22;99873.0;;;10.19;88.78
68474;BME280;55461;52.066;5.194;2022-12-29T06:17:59;99857.0;;;10.23;88.05
68474;BME280;55461;52.066;5.194;2022-12-29T06:21:12;99862.0;;;10.13;88.72
68474;BME280;55461;52.066;5.194;2022-12-29T06:22:48;99863.0;;;10.24;89.6
68474;BME280;55461;52.066;5.194;2022-12-29T06:24:26;99865.0;;;10.19;89.2
68474;BME280;55461;52.066;5.194;2022-12-29T06:27:40;99862.0;;;9.97;89.71
68474;BME280;55461;52.066;5.194;2022-12-29T06:29:17;99880.0;;;9.96;89.69
68474;BME280;55461;52.066;5.194;2022-12-29T06:30:53;99891.0;;;9.97;90.46
68474;BME280;55461;52.066;5.194;2022-12-29T06:34:07;99888.0;;;9.89;91.17
68474;BME280;55461;52.066;5.194;2022-12-29T06:35:43;99896.0;;;9.76;91.56
68474;BME280;55461;52.066;5.194;2022-12-29T06:37:20;99880.0;;;9.75;91.04
68474;BME280;55461;52.066;5.194;2022-12-29T06:38:57;99898.0;;;9.83;90.8
68474;BME280;55461;52.066;5.194;2022-12-29T06:42:10;99900.0;;;9.91;91.11
68474;BME280;55461;52.066;5.194;2022-12-29T06:43:46;99898.0;;;9.91;90.43
68474;BME280;55461;52.066;5.194;2022-12-29T06:45:23;99889.0;;;9.89;90.23
68474;BME280;55461;52.066;5.194;2022-12-29T06:48:37;99885.0;;;9.8;88.56
68474;BME280;55461;52.066;5.194;2022-12-29T06:50:14;99880.0;;;9.75;87.45
68474;BME280;55461;52.066;5.194;2022-12-29T06:51:50;99890.0;;;9.81;85.34
68474;BME280;55461;52.066;5.194;2022-12-29T06:53:28;99884.0;;;9.86;85.98
68474;BME280;55461;52.066;5.194;2022-12-29T06:56:42;99880.0;;;9.89;85.24
68474;BME280;55461;52.066;5.194;2022-12-29T06:58:20;99909.0;;;9.78;84.64
68474;BME280;55461;52.066;5.194;2022-12-29T06:59:56;99910.0;;;9.66;85.21
68474;BME280;55461;52.066;5.194;2022-12-29T07:03:10;99905.0;;;9.61;87.26
68474;BME280;55461;52.066;5.194;2022-12-29T07:04:46;99885.0;;;9.43;89.47
68474;BME280;55461;52.066;5.194;2022-12-29T07:06:22;99889.0;;;9.4;90.89
68474;BME280;55461;52.066;5.194;2022-12-29T07:09:36;99895.0;;;9.41;91.75
68474;BME280;55461;52.066;5.194;2022-12-29T07:11:13;99886.0;;;9.46;92.14
68474;BME280;55461;52.066;5.194;2022-12-29T07:12:49;99888.0;;;9.28;93.55
68474;BME280;55461;52.066;5.194;2022-12-29T07:14:26;99892.0;;;9.17;94.38
68474;BME280;55461;52.066;5.194;2022-12-29T07:17:42;99892.0;;;9.22;94.46
68474;BME280;55461;52.066;5.194;2022-12-29T07:19:19;99909.0;;;9.0;95.54
68474;BME280;55461;52.066;5.194;2022-12-29T07:20:56;99914.0;;;9.06;95.99
68474;BME280;55461;52.066;5.194;2022-12-29T07:24:09;99905.0;;;9.05;96.25
68474;BME280;55461;52.066;5.194;2022-12-29T07:25:45;99906.0;;;9.0;96.1
68474;BME280;55461;52.066;5.194;2022-12-29T07:27:22;99912.0;;;8.97;96.34
68474;BME280;55461;52.066;5.194;2022-12-29T07:30:36;99914.0;;;8.9;96.53
68474;BME280;55461;52.066;5.194;2022-12-29T07:32:14;99913.0;;;8.93;96.61
68474;BME280;55461;52.066;5.194;2022-12-29T07:33:51;99916.0;;;8.91;96.73
68474;BME280;55461;52.066;5.194;2022-12-29T07:35:28;99920.0;;;9.0;96.17
68474;BME280;55461;52.066;5.194;2022-12-29T07:38:42;99909.0;;;9.14;95.41
68474;BME280;55461;52.066;5.194;2022-12-29T07:40:20;99924.0;;;9.15;94.89
68474;BME280;55461;52.066;5.194;2022-12-29T07:41:56;99930.0;;;9.22;94.65
68474;BME280;55461;52.066;5.194;2022-12-29T07:45:10;99927.0;;;9.09;94.66
68474;BME280;55461;52.066;5.194;2022-12-29T07:46:47;99921.0;;;9.17;94.12
68474;BME280;55461;52.066;5.194;2022-12-29T07:48:23;99922.0;;;9.26;93.54
68474;BME280;55461;52.066;5.194;2022-12-29T07:50:00;99931.0;;;9.31;93.24
68474;BME280;55461;52.066;5.194;2022-12-29T07:53:14;99918.0;;;9.31;93.12
68474;BME280;55461;52.066;5.194;2022-12-29T07:54:51;99932.0;;;9.32;92.58
68474;BME280;55461;52.066;5.194;2022-12-29T07:56:27;99934.0;;;9.46;92.21
68474;BME280;55461;52.066;5.194;2022-12-29T07:59:40;99935.0;;;9.42;91.98
68474;BME280;55461;52.066;5.194;2022-12-29T08:01:17;99934.0;;;9.42;91.6
68474;BME280;55461;52.066;5.194;2022-12-29T08:02:53;99935.0;;;9.47;91.07
68474;BME280;55461;52.066;5.194;2022-12-29T08:06:05;99924.0;;;9.48;90.77
68474;BME280;55461;52.066;5.194;2022-12-29T08:07:45;99926.0;;;9.51;90.39
68474;BME280;55461;52.066;5.194;2022-12-29T08:09:22;99927.0;;;9.49;89.32
68474;BME280;55461;52.066;5.194;2022-12-29T08:10:58;99917.0;;;9.53;89.31
68474;BME280;55461;52.066;5.194;2022-12-29T08:14:11;99925.0;;;9.64;88.14
68474;BME280;55461;52.066;5.194;2022-12-29T08:15:47;99922.0;;;9.66;87.27
68474;BME280;55461;52.066;5.194;2022-12-29T08:17:24;99915.0;;;9.73;87.61
68474;BME280;55461;52.066;5.194;2022-12-29T08:20:36;99919.0;;;9.9;87.03
68474;BME280;55461;52.066;5.194;2022-12-29T08:22:13;99912.0;;;9.81;86.35
68474;BME280;55461;52.066;5.194;2022-12-29T08:23:49;99908.0;;;9.72;85.66
68474;BME280;55461;52.066;5.194;2022-12-29T08:27:02;99916.0;;;9.8;85.29
68474;BME280;55461;52.066;5.194;2022-12-29T08:28:38;99909.0;;;9.73;85.16
68474;BME280;55461;52.066;5.194;2022-12-29T08:30:14;99927.0;;;9.81;84.43
68474;BME280;55461;52.066;5.194;2022-12-29T08:31:51;99923.0;;;9.86;84.67
68474;BME280;55461;52.066;5.194;2022-12-29T08:35:05;99926.0;;;9.84;84.58
68474;BME280;55461;52.066;5.194;2022-12-29T08:36:42;99924.0;;;9.86;84.17
68474;BME280;55461;52.066;5.194;2022-12-29T08:38:18;99922.0;;;9.83;84.39
68474;BME280;55461;52.066;5.194;2022-12-29T08:41:31;99937.0;;;9.85;84.02
68474;BME280;55461;52.066;5.194;2022-12-29T08:43:08;99931.0;;;9.88;84.38
68474;BME280;55461;52.066;5.194;2022-12-29T08:44:44;99932.0;;;9.89;85.39
68474;BME280;55461;52.066;5.194;2022-12-29T08:47:57;99926.0;;;9.97;85.31
68474;BME280;55461;52.066;5.194;2022-12-29T08:49:33;99930.0;;;9.97;86.34
68474;BME280;55461;52.066;5.194;2022-12-29T08:51:10;99935.0;;;9.88;87.41
68474;BME280;55461;52.066;5.194;2022-12-29T08:52:46;99932.0;;;9.9;86.96
68474;BME280;55461;52.066;5.194;2022-12-29T08:55:59;99935.0;;;9.96;87.02
68474;BME280;55461;52.066;5.194;2022-12-29T08:57:36;99932.0;;;9.91;87.21
68474;BME280;55461;52.066;5.194;2022-12-29T08:59:13;99935.0;;;9.85;87.1
68474;BME280;55461;52.066;5.194;2022-12-29T09:02:28;99945.0;;;9.93;87.94
68474;BME280;55461;52.066;5.194;2022-12-29T09:04:04;99941.0;;;9.9;87.92
68474;BME280;55461;52.066;5.194;2022-12-29T09:05:40;99941.0;;;9.9;87.79
68474;BME280;55461;52.066;5.194;2022-12-29T09:08:53;99944.0;;;9.91;88.44
68474;BME280;55461;52.066;5.194;2022-12-29T09:10:30;99935.0;;;9.82;89.62
68474;BME280;55461;52.066;5.194;2022-12-29T09:12:07;99960.0;;;9.83;90.31
68474;BME280;55461;52.066;5.194;2022-12-29T09:13:43;99961.0;;;9.88;90.24
68474;BME280;55461;52.066;5.194;2022-12-29T09:16:56;99952.0;;;9.8;90.18
68474;BME280;55461;52.066;5.194;2022-12-29T09:18:33;99956.0;;;9.86;90.4
68474;BME280;55461;52.066;5.194;2022-12-29T09:20:10;99977.0;;;9.82;90.12
68474;BME280;55461;52.066;5.194;2022-12-29T09:23:23;99972.0;;;9.84;89.77
68474;BME280;55461;52.066;5.194;2022-12-29T09:26:37;99975.0;;;9.8;91.32
68474;BME280;55461;52.066;5.194;2022-12-29T09:29:49;99991.0;;;9.71;92.54
68474;BME280;55461;52.066;5.194;2022-12-29T09:31:25;100013.0;;;9.59;93.31
68474;BME280;55461;52.066;5.194;2022-12-29T09:33:02;100007.0;;;9.53;94.53
68474;BME280;55461;52.066;5.194;2022-12-29T09:34:40;100001.0;;;9.5;95.74
68474;BME280;55461;52.066;5.194;2022-12-29T09:37:53;100021.0;;;9.56;96.28
68474;BME280;55461;52.066;5.194;2022-12-29T09:39:29;100010.0;;;9.44;97.14
68474;BME280;55461;52.066;5.194;2022-12-29T09:41:12;100014.0;;;9.4;97.63
68474;BME280;55461;52.066;5.194;2022-12-29T09:44:51;100008.0;;;9.33;98.36
68474;BME280;55461;52.066;5.194;2022-12-29T09:46:39;100016.0;;;9.35;99.19
68474;BME280;55461;52.066;5.194;2022-12-29T09:48:19;100017.0;;;9.34;99.69
68474;BME280;55461;52.066;5.194;2022-12-29T09:50:03;100016.0;;;9.27;100.0
68474;BME280;55461;52.066;5.194;2022-12-29T09:51:43;100025.0;;;9.36;100.0
68474;BME280;55461;52.066;5.194;2022-12-29T09:53:25;100031.0;;;9.38;100.0
68474;BME280;55461;52.066;5.194;2022-12-29T09:58:35;100040.0;;;9.38;100.0
68474;BME280;55461;52.066;5.194;2022-12-29T10:03:42;100040.0;;;9.32;100.0
68474;BME280;55461;52.066;5.194;2022-12-29T10:05:29;100038.0;;;9.53;100.0
68474;BME280;55461;52.066;5.194;2022-12-29T10:07:17;100038.0;;;9.48;100.0
68474;BME280;55461;52.066;5.194;2022-12-29T10:09:02;100066.0;;;9.4;99.47
68474;BME280;55461;52.066;5.194;2022-12-29T10:10:50;100070.0;;;9.48;99.46
68474;BME280;55461;52.066;5.194;2022-12-29T10:12:39;100059.0;;;9.39;99.94
68474;BME280;55461;52.066;5.194;2022-12-29T10:14:36;100075.0;;;9.46;99.95
68474;BME280;55461;52.066;5.194;2022-12-29T10:18:12;100085.0;;;9.47;99.71
68474;BME280;55461;52.066;5.194;2022-12-29T10:20:05;100077.0;;;9.52;99.81
68474;BME280;55461;52.066;5.194;2022-12-29T10:22:02;100085.0;;;9.58;99.44
68474;BME280;55461;52.066;5.194;2022-12-29T10:23:48;100085.0;;;9.57;99.52
68474;BME280;55461;52.066;5.194;2022-12-29T10:25:32;100084.0;;;9.68;98.91
68474;BME280;55461;52.066;5.194;2022-12-29T10:27:12;100092.0;;;9.65;98.88
68474;BME280;55461;52.066;5.194;2022-12-29T10:30:32;100090.0;;;9.6;99.17
68474;BME280;55461;52.066;5.194;2022-12-29T10:32:17;100094.0;;;9.61;99.19
68474;BME280;55461;52.066;5.194;2022-12-29T10:34:14;100094.0;;;9.57;99.49
68474;BME280;55461;52.066;5.194;2022-12-29T10:37:34;100108.0;;;9.67;99.52
68474;BME280;55461;52.066;5.194;2022-12-29T10:41:11;100107.0;;;9.61;99.87
68474;BME280;55461;52.066;5.194;2022-12-29T10:42:53;100122.0;;;9.69;99.66
68474;BME280;55461;52.066;5.194;2022-12-29T10:44:31;100113.0;;;9.68;99.88
68474;BME280;55461;52.066;5.194;2022-12-29T10:46:10;100121.0;;;9.73;99.51
68474;BME280;55461;52.066;5.194;2022-12-29T10:47:57;100122.0;;;9.59;99.62
68474;BME280;55461;52.066;5.194;2022-12-29T10:51:22;100130.0;;;9.73;99.58
68474;BME280;55461;52.066;5.194;2022-12-29T10:53:04;100124.0;;;9.69;100.0
68474;BME280;55461;52.066;5.194;2022-12-29T10:54:45;100141.0;;;9.67;100.0
68474;BME280;55461;52.066;5.194;2022-12-29T10:56:31;100142.0;;;9.74;100.0
68474;BME280;55461;52.066;5.194;2022-12-29T10:59:50;100147.0;;;9.68;99.6
68474;BME280;55461;52.066;5.194;2022-12-29T11:01:31;100149.0;;;9.67;99.63
68474;BME280;55461;52.066;5.194;2022-12-29T11:03:31;100170.0;;;9.71;99.83
68474;BME280;55461;52.066;5.194;2022-12-29T11:05:26;100152.0;;;9.63;99.83
68474;BME280;55461;52.066;5.194;2022-12-29T11:07:09;100155.0;;;9.63;99.36
68474;BME280;55461;52.066;5.194;2022-12-29T11:08:52;100163.0;;;9.64;99.44
68474;BME280;55461;52.066;5.194;2022-12-29T11:12:19;100167.0;;;9.72;99.54
68474;BME280;55461;52.066;5.194;2022-12-29T11:13:59;100170.0;;;9.73;99.25
68474;BME280;55461;52.066;5.194;2022-12-29T11:15:39;100180.0;;;9.92;99.56
68474;BME280;55461;52.066;5.194;2022-12-29T11:17:17;100177.0;;;9.94;99.46
68474;BME280;55461;52.066;5.194;2022-12-29T11:20:33;100182.0;;;10.06;99.5
68474;BME280;55461;52.066;5.194;2022-12-29T11:22:20;100183.0;;;10.13;98.08
68474;BME280;55461;52.066;5.194;2022-12-29T11:25:35;100186.0;;;9.97;97.19
68474;BME280;55461;52.066;5.194;2022-12-29T11:30:24;100189.0;;;9.89;96.36
68474;BME280;55461;52.066;5.194;2022-12-29T11:32:11;100205.0;;;9.76;96.18
68474;BME280;55461;52.066;5.194;2022-12-29T11:33:48;100211.0;;;9.8;95.89
68474;BME280;55461;52.066;5.194;2022-12-29T11:37:15;100208.0;;;9.69;95.98
68474;BME280;55461;52.066;5.194;2022-12-29T11:38:54;100207.0;;;9.66;96.1
68474;BME280;55461;52.066;5.194;2022-12-29T11:40:37;100211.0;;;9.63;95.69
68474;BME280;55461;52.066;5.194;2022-12-29T11:42:18;100196.0;;;9.48;95.79
68474;BME280;55461;52.066;5.194;2022-12-29T11:45:36;100207.0;;;9.56;95.48